Time;durP1;ratioP1;P1;durP2;ratioP2;P2;SDS_P1;SDS_P2;PMS_P1;PMS_P2;Temp;Humidity;BMP_temperature;BMP_pressure;BME280_temperature;BME280_humidity;BME280_pressure;Samples;Min_cycle;Max_cycle;Signal;HPM_P1;HPM_P2
2020/12/22 00:02:24;;;;;;;1.67;0.70;;;4.30;99.90;;;;;;4965939;28;20222;-93
2020/12/22 00:04:57;;;;;;;2.97;1.07;;;4.20;99.90;;;;;;4975734;28;20222;-93
2020/12/22 00:07:30;;;;;;;3.33;1.10;;;4.20;99.90;;;;;;4980179;28;20207;-92
2020/12/22 00:10:07;;;;;;;0.77;0.77;;;4.20;99.90;;;;;;4960829;28;20237;-94
2020/12/22 00:12:41;;;;;;;1.40;0.73;;;4.20;99.90;;;;;;4966079;28;20215;-93
2020/12/22 00:15:13;;;;;;;1.33;0.50;;;4.30;99.90;;;;;;4973610;28;20214;-94
2020/12/22 00:17:54;;;;;;;1.80;1.00;;;4.10;99.90;;;;;;4981270;28;20273;-93
2020/12/22 00:20:31;;;;;;;1.23;0.83;;;4.10;99.90;;;;;;4980767;28;20219;-91
2020/12/22 00:23:02;;;;;;;1.07;0.80;;;4.00;99.90;;;;;;4978592;28;20210;-94
2020/12/22 00:25:44;;;;;;;1.10;0.60;;;4.00;99.90;;;;;;4971631;28;20235;-92
2020/12/22 00:28:16;;;;;;;1.60;0.70;;;3.90;99.90;;;;;;4968160;28;20222;-92
2020/12/22 00:30:49;;;;;;;0.93;0.83;;;3.80;99.90;;;;;;4973323;28;20214;-94
2020/12/22 00:33:23;;;;;;;1.80;1.00;;;3.80;99.90;;;;;;4963353;28;20207;-93
2020/12/22 00:35:54;;;;;;;2.13;0.90;;;3.80;99.90;;;;;;5167597;22;20327;-90
2020/12/22 00:38:25;;;;;;;3.00;0.90;;;3.90;99.90;;;;;;5016299;28;20204;-90
2020/12/22 00:40:55;;;;;;;1.60;0.80;;;3.80;99.90;;;;;;5024784;28;20217;-90
2020/12/22 00:43:25;;;;;;;2.37;0.90;;;3.70;99.90;;;;;;5019146;28;20213;-89
2020/12/22 00:45:56;;;;;;;4.33;1.33;;;3.70;99.90;;;;;;5017757;28;20290;-90
2020/12/22 00:48:32;;;;;;;1.50;0.97;;;3.60;99.90;;;;;;5028330;28;20205;-91
2020/12/22 00:51:01;;;;;;;0.80;0.60;;;3.70;99.90;;;;;;5041983;28;20204;-91
2020/12/22 00:53:32;;;;;;;1.73;0.73;;;3.70;99.90;;;;;;5049723;28;20710;-92
2020/12/22 00:56:02;;;;;;;1.17;0.60;;;3.50;99.90;;;;;;5023314;28;20209;-91
2020/12/22 00:58:34;;;;;;;3.63;0.70;;;3.40;99.90;;;;;;5012719;28;20206;-91
2020/12/22 01:01:07;;;;;;;3.70;0.80;;;3.30;99.90;;;;;;5013926;28;20249;-90
2020/12/22 01:03:39;;;;;;;1.00;0.60;;;3.30;99.90;;;;;;5021590;28;20212;-90
2020/12/22 01:06:12;;;;;;;1.27;0.60;;;3.30;99.90;;;;;;4980969;28;20244;-90
2020/12/22 01:12:16;;;;;;;1.07;0.67;;;3.10;99.90;;;;;;4996251;28;20275;-91
2020/12/22 01:15:40;;;;;;;1.43;0.90;;;3.00;99.90;;;;;;5008634;28;20210;-90
2020/12/22 01:23:08;;;;;;;4.63;1.00;;;2.70;99.90;;;;;;4924473;29;20248;-90
2020/12/22 01:26:40;;;;;;;1.17;0.60;;;2.70;99.90;;;;;;4521289;29;10001023;-94
2020/12/22 01:29:30;;;;;;;1.17;0.77;;;2.50;99.90;;;;;;4920513;29;20229;-96
2020/12/22 01:32:52;;;;;;;0.90;0.60;;;2.40;99.90;;;;;;5008655;28;20208;-96
2020/12/22 01:35:52;;;;;;;1.23;0.70;;;2.30;99.90;;;;;;5009698;28;20219;-94
2020/12/22 01:45:31;;;;;;;0.67;0.50;;;2.20;99.90;;;;;;5229732;22;20267;-96
2020/12/22 01:56:58;;;;;;;1.90;0.50;;;1.90;99.90;;;;;;5484361;22;20284;-93
2020/12/22 01:59:41;;;;;;;3.50;0.87;;;1.80;99.90;;;;;;5052600;28;20275;-91
2020/12/22 02:02:11;;;;;;;0.60;0.53;;;1.70;99.90;;;;;;5061624;28;20220;-93
2020/12/22 02:10:31;;;;;;;0.43;0.43;;;1.70;99.90;;;;;;5056797;28;20196;-93
2020/12/22 02:13:27;;;;;;;0.60;0.50;;;1.70;99.90;;;;;;5046475;28;20291;-94
2020/12/22 02:16:01;;;;;;;2.77;0.70;;;1.60;99.90;;;;;;5041942;28;20199;-96
2020/12/22 02:18:32;;;;;;;3.17;1.00;;;1.60;99.90;;;;;;5044785;28;20274;-94
2020/12/22 02:21:05;;;;;;;2.33;0.73;;;1.50;99.90;;;;;;5040423;28;20214;-94
2020/12/22 02:23:35;;;;;;;0.50;0.50;;;1.40;99.90;;;;;;5042901;28;20702;-95
2020/12/22 02:26:07;;;;;;;0.63;0.63;;;1.40;99.90;;;;;;5038835;28;20228;-94
2020/12/22 02:28:38;;;;;;;0.60;0.60;;;1.40;99.90;;;;;;5047857;28;20680;-95
2020/12/22 02:31:08;;;;;;;1.63;0.60;;;1.40;99.90;;;;;;5047814;28;20228;-96
2020/12/22 02:33:39;;;;;;;0.80;0.60;;;1.40;99.90;;;;;;5041537;28;20718;-96
2020/12/22 02:36:14;;;;;;;2.60;0.53;;;1.30;99.90;;;;;;5060947;28;20607;-94
2020/12/22 02:38:45;;;;;;;1.30;0.40;;;1.30;99.90;;;;;;5034576;28;20200;-96
2020/12/22 02:41:19;;;;;;;0.47;0.47;;;1.20;99.90;;;;;;5055361;28;20307;-95
2020/12/22 02:43:53;;;;;;;0.43;0.43;;;1.30;99.90;;;;;;5035234;28;20672;-95
2020/12/22 02:46:24;;;;;;;0.43;0.30;;;1.20;99.90;;;;;;5040498;28;20765;-94
2020/12/22 02:48:55;;;;;;;0.77;0.50;;;1.20;99.90;;;;;;5048108;28;20266;-96
2020/12/22 02:51:26;;;;;;;0.50;0.50;;;1.30;99.90;;;;;;5046807;28;20303;-96
2020/12/22 02:53:57;;;;;;;0.80;0.47;;;1.30;99.90;;;;;;5056452;28;20218;-95
2020/12/22 02:56:30;;;;;;;1.00;0.80;;;1.30;99.90;;;;;;5050431;28;20319;-96
2020/12/22 02:59:01;;;;;;;1.40;1.20;;;1.20;99.90;;;;;;5040867;28;20637;-95
2020/12/22 03:01:39;;;;;;;1.40;1.30;;;1.20;99.90;;;;;;5057102;28;20196;-93
2020/12/22 03:04:12;;;;;;;2.30;1.93;;;1.20;99.90;;;;;;5049188;28;20640;-94
2020/12/22 03:06:44;;;;;;;3.37;2.83;;;1.20;99.90;;;;;;5042418;28;20271;-94
2020/12/22 03:09:16;;;;;;;4.70;2.83;;;1.10;99.90;;;;;;5041522;28;20271;-93
2020/12/22 03:11:47;;;;;;;3.27;2.50;;;1.10;99.90;;;;;;5049453;28;20223;-96
2020/12/22 03:14:21;;;;;;;6.43;3.10;;;1.10;99.90;;;;;;5041634;28;20212;-96
2020/12/22 03:19:28;;;;;;;3.10;2.60;;;1.20;99.90;;;;;;5048770;22;20255;-96
2020/12/22 03:22:03;;;;;;;4.93;2.60;;;1.10;99.90;;;;;;5032237;28;20229;-96
2020/12/22 03:24:34;;;;;;;4.77;3.43;;;1.20;99.90;;;;;;5343477;22;20286;-95
2020/12/22 03:27:07;;;;;;;6.40;2.83;;;1.10;99.90;;;;;;5044177;28;20207;-96
2020/12/22 03:29:38;;;;;;;9.00;2.90;;;1.20;99.90;;;;;;5035109;28;20745;-95
2020/12/22 03:45:33;;;;;;;1.60;1.40;;;1.00;99.90;;;;;;5118734;22;20282;-96
2020/12/22 03:48:04;;;;;;;2.70;2.20;;;1.00;99.90;;;;;;5027889;28;20201;-96
2020/12/22 03:50:34;;;;;;;2.97;2.70;;;1.00;99.90;;;;;;5038943;28;20217;-96
2020/12/22 04:21:02;;;;;;;1.90;1.37;;;0.90;99.90;;;;;;5245375;23;20278;-96
2020/12/22 04:23:33;;;;;;;3.60;2.87;;;1.10;99.90;;;;;;4945778;29;20227;-96
2020/12/22 04:26:03;;;;;;;1.80;1.40;;;1.10;99.90;;;;;;4935921;29;20227;-96
2020/12/22 04:28:34;;;;;;;4.57;2.50;;;1.20;99.90;;;;;;4942434;29;20215;-96
2020/12/22 04:31:07;;;;;;;2.00;1.83;;;1.20;99.90;;;;;;4949916;29;20211;-96
2020/12/22 04:33:38;;;;;;;2.97;2.00;;;1.20;99.90;;;;;;4940842;29;20211;-96
2020/12/22 04:36:13;;;;;;;2.63;1.00;;;1.30;99.90;;;;;;4943862;29;20208;-96
2020/12/22 04:38:44;;;;;;;1.17;0.80;;;1.40;99.90;;;;;;4934179;29;20211;-96
2020/12/22 04:41:16;;;;;;;3.77;3.17;;;1.50;99.90;;;;;;4938749;29;20218;-96
2020/12/22 04:43:56;;;;;;;1.93;1.50;;;1.60;99.90;;;;;;4945055;29;20210;-96
2020/12/22 04:46:28;;;;;;;3.67;2.13;;;1.50;99.90;;;;;;4943828;29;20246;-96
2020/12/22 04:48:59;;;;;;;1.73;1.40;;;1.50;99.90;;;;;;4938689;29;20228;-96
2020/12/22 04:51:42;;;;;;;2.20;0.90;;;1.50;99.90;;;;;;4940060;29;20664;-95
2020/12/22 04:54:32;;;;;;;4.67;2.30;;;1.70;99.90;;;;;;4927255;29;20212;-96
2020/12/22 04:57:05;;;;;;;2.70;1.67;;;1.60;99.90;;;;;;4937992;29;20204;-96
2020/12/22 04:59:39;;;;;;;5.30;2.60;;;1.50;99.90;;;;;;4942857;29;20246;-96
2020/12/22 05:02:10;;;;;;;3.33;2.67;;;1.50;99.90;;;;;;4938943;29;20235;-96
2020/12/22 05:04:41;;;;;;;4.70;2.77;;;1.50;99.90;;;;;;4942225;29;20216;-96
2020/12/22 05:07:17;;;;;;;4.27;3.20;;;1.50;99.90;;;;;;4940271;29;20208;-96
2020/12/22 05:09:48;;;;;;;2.90;1.50;;;1.50;99.90;;;;;;4944018;29;20212;-96
2020/12/22 05:12:21;;;;;;;3.20;1.80;;;1.60;99.90;;;;;;4943224;29;20279;-96
2020/12/22 05:15:00;;;;;;;5.67;3.40;;;1.50;99.90;;;;;;4940352;29;20257;-96
2020/12/22 05:21:25;;;;;;;2.57;2.13;;;1.50;99.90;;;;;;4943667;29;20234;-96
2020/12/22 05:23:58;;;;;;;4.40;2.60;;;1.40;99.90;;;;;;4941015;29;20208;-96
2020/12/22 05:26:37;;;;;;;3.90;2.33;;;1.40;99.90;;;;;;4938325;29;20235;-96
2020/12/22 05:29:12;;;;;;;4.40;3.00;;;1.40;99.90;;;;;;4933902;29;20215;-96
2020/12/22 05:53:14;;;;;;;2.80;2.40;;;1.40;99.90;;;;;;4950300;28;20251;-96
2020/12/22 05:55:48;;;;;;;3.00;2.70;;;1.50;99.90;;;;;;4950705;29;20216;-93
2020/12/22 05:58:19;;;;;;;3.53;3.00;;;1.50;99.90;;;;;;4950616;29;20202;-94
2020/12/22 06:00:51;;;;;;;6.13;5.53;;;1.60;99.90;;;;;;4951035;29;20613;-95
2020/12/22 06:03:24;;;;;;;8.00;5.50;;;1.60;99.90;;;;;;4944320;29;20276;-94
2020/12/22 06:05:57;;;;;;;4.40;4.00;;;1.60;99.90;;;;;;4943953;29;20224;-96
2020/12/22 06:08:35;;;;;;;4.80;3.90;;;1.60;99.90;;;;;;4947720;29;20203;-95
2020/12/22 06:11:06;;;;;;;5.97;4.00;;;1.60;99.90;;;;;;4951204;29;20234;-95
2020/12/22 06:13:53;;;;;;;5.23;4.40;;;1.60;99.90;;;;;;4946752;29;20220;-95
2020/12/22 06:22:24;;;;;;;7.07;4.53;;;1.30;99.90;;;;;;4942704;29;20233;-94
2020/12/22 06:25:03;;;;;;;6.43;4.87;;;1.40;99.90;;;;;;4943591;29;20212;-93
2020/12/22 06:27:47;;;;;;;5.87;4.93;;;1.40;99.90;;;;;;4938273;29;20256;-93
2020/12/22 06:30:31;;;;;;;6.83;5.30;;;1.50;99.90;;;;;;4946715;29;20237;-94
2020/12/22 06:33:26;;;;;;;8.10;6.27;;;1.50;99.90;;;;;;4950406;29;20236;-94
2020/12/22 06:36:13;;;;;;;10.70;6.87;;;1.50;99.90;;;;;;4948055;28;20205;-93
2020/12/22 06:38:55;;;;;;;117.30;12.47;;;1.50;99.90;;;;;;4947129;28;20237;-95
2020/12/22 06:41:56;;;;;;;10.87;7.47;;;1.50;99.90;;;;;;4950599;28;20186;-94
2020/12/22 06:44:30;;;;;;;9.23;7.77;;;1.50;99.90;;;;;;4957514;29;20256;-92
2020/12/22 06:47:03;;;;;;;20.40;8.20;;;1.50;99.90;;;;;;4941374;29;20232;-93
2020/12/22 06:49:51;;;;;;;9.20;7.20;;;1.60;99.90;;;;;;4943303;29;20208;-92
2020/12/22 06:52:33;;;;;;;10.60;7.87;;;1.70;99.90;;;;;;4948784;29;20220;-92
2020/12/22 06:55:05;;;;;;;10.97;7.60;;;1.70;99.90;;;;;;4936758;29;20235;-92
2020/12/22 07:04:23;;;;;;;8.17;7.17;;;1.80;99.90;;;;;;4942366;29;20207;-91
2020/12/22 07:07:02;;;;;;;7.87;6.10;;;1.80;99.90;;;;;;4946206;29;20243;-93
2020/12/22 07:09:47;;;;;;;11.73;6.27;;;1.70;99.90;;;;;;4939872;29;20194;-92
2020/12/22 07:15:57;;;;;;;7.10;4.60;;;1.60;99.90;;;;;;4940476;29;20556;-94
2020/12/22 07:18:32;;;;;;;3.70;3.27;;;1.60;99.90;;;;;;4943003;29;20298;-93
2020/12/22 07:21:06;;;;;;;5.13;3.73;;;1.60;99.90;;;;;;4940113;28;20230;-92
2020/12/22 07:23:38;;;;;;;4.43;2.90;;;1.70;99.90;;;;;;4946926;29;20220;-92
2020/12/22 07:26:13;;;;;;;5.60;3.30;;;1.70;99.90;;;;;;4949838;29;20222;-91
2020/12/22 07:28:58;;;;;;;2.67;2.47;;;1.80;99.90;;;;;;4950410;29;20261;-92
2020/12/22 07:34:26;;;;;;;3.07;2.70;;;1.90;99.90;;;;;;4944601;29;20658;-91
2020/12/22 07:37:12;;;;;;;2.90;2.60;;;1.90;99.90;;;;;;4944646;29;20217;-93
2020/12/22 07:39:42;;;;;;;2.00;1.83;;;1.80;99.90;;;;;;4950377;29;20232;-92
2020/12/22 07:45:09;;;;;;;2.53;2.27;;;2.00;99.90;;;;;;4944907;29;20206;-92
2020/12/22 07:48:05;;;;;;;4.27;2.37;;;2.00;99.90;;;;;;4946638;29;20220;-91
2020/12/22 07:53:34;;;;;;;4.60;3.60;;;2.00;99.90;;;;;;4953746;29;20222;-93
2020/12/22 07:59:33;;;;;;;2.83;2.50;;;2.00;99.90;;;;;;4957315;29;20211;-94
2020/12/22 08:02:10;;;;;;;2.33;1.90;;;1.90;99.90;;;;;;4957081;29;20270;-93
2020/12/22 08:13:57;;;;;;;3.47;3.13;;;2.10;99.90;;;;;;4957001;29;20208;-95
2020/12/22 08:16:36;;;;;;;4.40;1.63;;;2.10;99.90;;;;;;4945186;29;20281;-92
2020/12/22 08:19:27;;;;;;;2.67;1.40;;;2.20;99.90;;;;;;4948666;29;20620;-90
2020/12/22 08:22:30;;;;;;;1.63;1.30;;;2.20;99.90;;;;;;4954520;29;20291;-90
2020/12/22 08:25:17;;;;;;;3.53;1.60;;;2.20;99.90;;;;;;4947233;28;20259;-91
2020/12/22 08:30:42;;;;;;;1.33;1.20;;;2.30;99.90;;;;;;4953155;29;20691;-91
2020/12/22 08:39:28;;;;;;;1.23;1.00;;;2.40;99.90;;;;;;4956499;29;20216;-93
2020/12/22 08:42:13;;;;;;;4.97;1.40;;;2.30;99.90;;;;;;4953607;29;20236;-92
2020/12/22 08:44:51;;;;;;;1.67;0.87;;;2.40;99.90;;;;;;4951884;29;20255;-92
2020/12/22 08:47:22;;;;;;;3.70;1.60;;;2.40;99.90;;;;;;4950660;29;20247;-91
2020/12/22 08:49:53;;;;;;;3.20;1.00;;;2.50;99.90;;;;;;4948184;29;20212;-90
2020/12/22 08:52:38;;;;;;;1.33;0.93;;;2.50;99.90;;;;;;4940835;29;20216;-91
2020/12/22 09:05:05;;;;;;;1.07;0.90;;;2.50;99.90;;;;;;4950610;29;20208;-92
2020/12/22 09:07:59;;;;;;;0.83;0.80;;;2.70;99.90;;;;;;4954862;29;20220;-91
2020/12/22 09:10:31;;;;;;;11.77;1.17;;;2.70;99.90;;;;;;4947927;29;20255;-89
2020/12/22 09:13:03;;;;;;;4.27;1.20;;;2.60;99.90;;;;;;4954012;29;20222;-92
2020/12/22 09:15:36;;;;;;;5.37;1.33;;;2.60;99.90;;;;;;4954359;29;20232;-92
2020/12/22 09:18:17;;;;;;;3.63;1.20;;;2.60;99.90;;;;;;4946978;29;20212;-93
2020/12/22 09:21:03;;;;;;;4.60;1.20;;;2.70;99.90;;;;;;4956719;29;20200;-91
2020/12/22 09:23:44;;;;;;;3.43;1.30;;;2.70;99.90;;;;;;4946977;29;20224;-92
2020/12/22 09:26:15;;;;;;;5.80;1.23;;;2.70;99.90;;;;;;4953864;29;20228;-89
2020/12/22 09:28:47;;;;;;;3.63;1.07;;;2.70;99.90;;;;;;4948417;29;20236;-87
2020/12/22 09:31:26;;;;;;;4.30;1.20;;;2.70;99.90;;;;;;5000421;23;20284;-89
2020/12/22 09:33:57;;;;;;;2.80;1.20;;;2.80;99.90;;;;;;4952266;29;20212;-89
2020/12/22 09:36:28;;;;;;;5.37;1.47;;;2.80;99.90;;;;;;4947474;29;20212;-89
2020/12/22 09:39:01;;;;;;;4.87;1.30;;;2.80;99.90;;;;;;4955463;29;20271;-91
2020/12/22 09:41:32;;;;;;;3.53;1.20;;;2.80;99.90;;;;;;4952736;28;20231;-92
2020/12/22 09:52:37;;;;;;;2.93;1.17;;;3.00;99.90;;;;;;4955278;29;20273;-91
2020/12/22 10:03:48;;;;;;;6.77;1.10;;;2.90;99.90;;;;;;5293516;23;20297;-92
2020/12/22 10:15:20;;;;;;;10.43;1.77;;;2.90;99.90;;;;;;5499748;23;20247;-91
2020/12/22 10:24:12;;;;;;;5.30;1.23;;;2.90;99.90;;;;;;4939945;29;20205;-93
2020/12/22 10:26:43;;;;;;;5.60;1.40;;;2.90;99.90;;;;;;4952279;29;20231;-92
2020/12/22 10:29:14;;;;;;;5.30;1.97;;;2.90;99.90;;;;;;4952771;29;20215;-93
2020/12/22 10:31:49;;;;;;;6.07;1.57;;;2.90;99.90;;;;;;4953217;29;20208;-95
2020/12/22 10:34:29;;;;;;;10.07;1.53;;;2.90;99.90;;;;;;4954309;29;20211;-96
2020/12/22 10:37:01;;;;;;;4.13;1.50;;;2.90;99.90;;;;;;4958043;29;20206;-95
2020/12/22 10:39:33;;;;;;;3.43;0.87;;;2.90;99.90;;;;;;4958248;29;20200;-93
2020/12/22 10:42:05;;;;;;;2.77;1.30;;;2.90;99.90;;;;;;4956039;29;20212;-95
2020/12/22 10:44:40;;;;;;;4.77;1.33;;;2.80;99.90;;;;;;4952012;29;20215;-95
2020/12/22 10:47:14;;;;;;;2.80;1.60;;;2.80;99.90;;;;;;4950938;29;20601;-93
2020/12/22 10:49:45;;;;;;;2.87;1.33;;;2.70;99.90;;;;;;4953877;29;20215;-94
2020/12/22 10:52:16;;;;;;;3.63;1.83;;;2.60;99.90;;;;;;4956753;28;20210;-94
2020/12/22 10:54:59;;;;;;;3.10;1.33;;;2.60;99.90;;;;;;4954561;29;20208;-94
2020/12/22 10:57:30;;;;;;;3.83;1.33;;;2.60;99.90;;;;;;4953256;29;20200;-91
2020/12/22 11:08:22;;;;;;;31.83;2.67;;;2.30;99.90;;;;;;4953353;29;20814;-92
2020/12/22 11:10:54;;;;;;;5.97;1.37;;;2.30;99.90;;;;;;4953193;29;20204;-92
2020/12/22 11:13:25;;;;;;;4.13;1.97;;;2.20;99.90;;;;;;4952882;28;20211;-90
2020/12/22 11:15:56;;;;;;;7.30;1.80;;;2.20;99.90;;;;;;4943116;28;20204;-90
2020/12/22 11:18:28;;;;;;;2.93;1.90;;;2.10;99.90;;;;;;4953306;29;20232;-90
2020/12/22 11:21:12;;;;;;;4.57;1.43;;;2.10;99.90;;;;;;4952846;29;20226;-94
2020/12/22 11:23:49;;;;;;;5.60;1.40;;;2.00;99.90;;;;;;4941559;29;20209;-94
2020/12/22 11:26:23;;;;;;;3.50;1.50;;;2.10;99.90;;;;;;4952886;28;20236;-92
2020/12/22 11:28:56;;;;;;;4.00;1.60;;;2.10;99.90;;;;;;4951636;29;20216;-90
2020/12/22 11:31:26;;;;;;;5.40;2.27;;;2.00;99.90;;;;;;4950403;29;20207;-91
2020/12/22 11:33:58;;;;;;;5.27;1.73;;;2.00;99.90;;;;;;4950713;29;20240;-94
2020/12/22 11:36:29;;;;;;;6.90;2.00;;;2.00;99.90;;;;;;4950238;29;20243;-96
2020/12/22 11:39:04;;;;;;;7.67;2.03;;;2.40;99.90;;;;;;4940921;29;20211;-94
2020/12/22 11:41:36;;;;;;;8.40;1.63;;;2.50;99.90;;;;;;4941730;28;20212;-95
2020/12/22 11:44:07;;;;;;;10.07;1.70;;;2.50;99.90;;;;;;4935267;29;20212;-94
2020/12/22 11:46:38;;;;;;;7.53;1.70;;;2.40;99.90;;;;;;4949071;29;20239;-93
2020/12/22 11:49:09;;;;;;;9.87;1.87;;;2.30;99.90;;;;;;4934065;29;20284;-94
2020/12/22 11:51:40;;;;;;;10.93;2.57;;;2.30;99.90;;;;;;4930015;29;20621;-93
2020/12/22 11:54:12;;;;;;;6.37;1.50;;;2.40;99.90;;;;;;4934795;29;20219;-92
2020/12/22 11:56:44;;;;;;;11.47;2.87;;;2.50;99.90;;;;;;4948829;29;20236;-94
2020/12/22 11:59:15;;;;;;;10.90;2.70;;;2.50;99.90;;;;;;4943923;29;20236;-95
2020/12/22 12:01:46;;;;;;;9.10;2.40;;;2.50;99.90;;;;;;4946821;29;20259;-94
2020/12/22 12:04:17;;;;;;;14.67;2.13;;;2.50;99.90;;;;;;4947739;29;20268;-93
2020/12/22 12:06:48;;;;;;;7.33;2.33;;;2.50;99.90;;;;;;4948361;29;20232;-93
2020/12/22 12:09:19;;;;;;;6.50;1.93;;;2.50;99.90;;;;;;4948412;29;20306;-91
2020/12/22 12:11:54;;;;;;;10.90;2.23;;;2.50;99.90;;;;;;4951503;29;20236;-92
2020/12/22 12:14:25;;;;;;;13.53;2.83;;;2.40;99.90;;;;;;4952731;29;20216;-93
2020/12/22 12:16:56;;;;;;;7.53;1.67;;;2.40;99.90;;;;;;4952209;29;20264;-93
2020/12/22 12:19:27;;;;;;;9.63;1.87;;;2.30;99.90;;;;;;4952578;28;20240;-94
2020/12/22 12:22:00;;;;;;;7.93;2.40;;;2.50;99.90;;;;;;4951052;29;20212;-93
2020/12/22 12:24:31;;;;;;;7.70;2.27;;;2.50;99.90;;;;;;4952366;29;20227;-90
2020/12/22 12:27:03;;;;;;;12.00;2.07;;;2.50;99.90;;;;;;4952935;28;20235;-90
2020/12/22 12:29:34;;;;;;;57.63;5.63;;;2.50;99.90;;;;;;4952865;29;20247;-89
2020/12/22 12:32:05;;;;;;;11.53;2.40;;;2.40;99.90;;;;;;4953575;29;20203;-90
2020/12/22 12:34:35;;;;;;;9.53;2.80;;;2.40;99.90;;;;;;4955698;29;20212;-92
2020/12/22 12:37:07;;;;;;;12.03;2.67;;;2.60;99.90;;;;;;4959837;29;20212;-92
2020/12/22 12:39:39;;;;;;;11.13;2.13;;;2.70;99.90;;;;;;4960073;29;20195;-93
2020/12/22 12:42:11;;;;;;;9.47;2.73;;;2.70;99.90;;;;;;4946536;29;20365;-94
2020/12/22 12:44:42;;;;;;;12.60;2.63;;;2.60;99.90;;;;;;4959367;29;20196;-93
2020/12/22 12:47:13;;;;;;;9.03;2.10;;;2.50;99.90;;;;;;4959619;29;20229;-90
2020/12/22 12:49:44;;;;;;;8.77;2.07;;;2.40;99.90;;;;;;4959891;29;20251;-91
2020/12/22 12:52:15;;;;;;;9.30;2.07;;;2.30;99.90;;;;;;4959626;29;20271;-92
2020/12/22 12:54:46;;;;;;;6.93;2.00;;;2.20;99.90;;;;;;4953474;29;20212;-91
2020/12/22 12:57:18;;;;;;;7.00;2.17;;;2.10;99.90;;;;;;4952262;29;20228;-90
2020/12/22 12:59:48;;;;;;;5.10;2.17;;;2.00;99.90;;;;;;4946043;29;20271;-91
2020/12/22 13:02:20;;;;;;;7.00;2.37;;;1.90;99.90;;;;;;4950854;29;20228;-91
2020/12/22 13:04:51;;;;;;;136.63;9.23;;;1.90;99.90;;;;;;4948946;29;20223;-91
2020/12/22 13:07:22;;;;;;;8.57;2.30;;;1.90;99.90;;;;;;4949876;29;20267;-91
2020/12/22 13:09:53;;;;;;;323.37;17.97;;;1.90;99.90;;;;;;4950092;29;20204;-91
2020/12/22 13:12:28;;;;;;;10.70;2.70;;;1.80;99.90;;;;;;4950625;29;20227;-91
2020/12/22 13:14:59;;;;;;;9.00;2.50;;;1.80;99.90;;;;;;4949075;29;20212;-91
2020/12/22 13:17:29;;;;;;;8.17;2.80;;;1.80;99.90;;;;;;4946048;29;20670;-96
2020/12/22 13:20:02;;;;;;;9.63;2.63;;;1.80;99.90;;;;;;4952314;29;20257;-96
2020/12/22 13:22:33;;;;;;;6.13;2.27;;;1.80;99.90;;;;;;4951682;28;20204;-96
2020/12/22 13:25:05;;;;;;;5.83;2.50;;;1.70;99.90;;;;;;4950571;29;20260;-96
2020/12/22 13:27:41;;;;;;;8.60;2.40;;;1.70;99.90;;;;;;4951384;29;20246;-93
2020/12/22 13:30:13;;;;;;;9.50;2.70;;;1.60;99.90;;;;;;4950084;29;20243;-93
2020/12/22 13:32:44;;;;;;;8.53;2.33;;;1.60;99.90;;;;;;4950371;28;20213;-93
2020/12/22 13:35:15;;;;;;;8.60;2.37;;;1.50;99.90;;;;;;4949370;29;20204;-90
2020/12/22 13:38:05;;;;;;;7.90;2.23;;;1.40;99.90;;;;;;4948750;29;20213;-90
2020/12/22 13:40:36;;;;;;;10.67;2.33;;;1.40;99.90;;;;;;4948266;29;20218;-90
2020/12/22 13:43:10;;;;;;;6.30;2.10;;;1.40;99.90;;;;;;4949398;29;20220;-90
2020/12/22 13:45:41;;;;;;;7.67;2.30;;;1.40;99.90;;;;;;4948633;29;20201;-91
2020/12/22 13:48:12;;;;;;;7.73;2.60;;;1.40;99.90;;;;;;4949079;29;20302;-90
2020/12/22 13:50:43;;;;;;;9.00;2.70;;;1.40;99.90;;;;;;4935501;29;20219;-90
2020/12/22 13:53:14;;;;;;;10.30;2.67;;;1.30;99.90;;;;;;4948747;29;20207;-90
2020/12/22 13:55:46;;;;;;;10.30;2.73;;;1.40;99.90;;;;;;4949093;29;20275;-90
2020/12/22 13:58:19;;;;;;;10.13;2.67;;;1.50;99.90;;;;;;4948530;29;20216;-91
2020/12/22 14:00:50;;;;;;;13.17;3.20;;;1.50;99.90;;;;;;4947468;28;20263;-91
2020/12/22 14:03:20;;;;;;;10.93;3.00;;;1.50;99.90;;;;;;4948926;28;20546;-91
2020/12/22 14:05:51;;;;;;;27.73;3.40;;;1.50;99.90;;;;;;4928587;29;20462;-91
2020/12/22 14:08:23;;;;;;;12.73;2.20;;;1.50;99.90;;;;;;4930027;29;20240;-90
2020/12/22 14:10:53;;;;;;;11.13;2.30;;;1.60;99.90;;;;;;4940967;29;20213;-91
2020/12/22 14:13:26;;;;;;;7.50;2.03;;;1.60;99.90;;;;;;4947067;29;20255;-91
2020/12/22 14:15:57;;;;;;;12.20;2.67;;;1.60;99.90;;;;;;4949892;29;20212;-91
2020/12/22 14:18:29;;;;;;;10.53;2.80;;;1.60;99.90;;;;;;4947297;29;20215;-91
2020/12/22 14:21:00;;;;;;;8.13;2.30;;;1.60;99.90;;;;;;4944483;29;20236;-91
2020/12/22 14:23:32;;;;;;;10.17;2.80;;;1.60;99.90;;;;;;4948656;29;20208;-92
2020/12/22 14:26:03;;;;;;;10.17;2.80;;;1.60;99.90;;;;;;4941052;29;20571;-90
2020/12/22 14:28:37;;;;;;;9.30;2.50;;;1.60;99.90;;;;;;4948138;29;20209;-93
2020/12/22 14:31:09;;;;;;;13.80;2.90;;;1.60;99.90;;;;;;4948508;29;20208;-92
2020/12/22 14:33:40;;;;;;;7.23;2.77;;;1.60;99.90;;;;;;4948600;28;20209;-93
2020/12/22 14:36:12;;;;;;;7.70;2.23;;;1.70;99.90;;;;;;4946605;29;20204;-92
2020/12/22 14:38:43;;;;;;;27.47;4.23;;;1.70;99.90;;;;;;4943383;28;20244;-92
2020/12/22 14:41:14;;;;;;;8.57;3.20;;;1.70;99.90;;;;;;4947510;29;20218;-92
2020/12/22 14:43:55;;;;;;;13.20;3.43;;;1.70;99.90;;;;;;4948847;29;20215;-92
2020/12/22 14:46:28;;;;;;;20.63;3.80;;;1.80;99.90;;;;;;4948631;29;20247;-92
2020/12/22 14:49:01;;;;;;;21.37;3.50;;;1.70;99.90;;;;;;4948644;29;20216;-92
2020/12/22 14:51:34;;;;;;;7.97;2.97;;;1.70;99.90;;;;;;4945021;29;20212;-92
2020/12/22 14:54:11;;;;;;;8.70;3.10;;;1.60;99.90;;;;;;4948152;29;20211;-92
2020/12/22 14:56:43;;;;;;;90.20;9.10;;;1.60;99.90;;;;;;4935043;29;20286;-94
2020/12/22 14:59:18;;;;;;;6.17;2.83;;;1.60;99.90;;;;;;4947982;29;20209;-96
2020/12/22 15:02:02;;;;;;;6.37;2.67;;;1.60;99.90;;;;;;4949744;28;20204;-93
2020/12/22 15:04:35;;;;;;;10.10;2.87;;;1.60;99.90;;;;;;4948873;28;20319;-94
2020/12/22 15:07:05;;;;;;;5.43;2.33;;;1.50;99.90;;;;;;4949149;29;20235;-93
2020/12/22 15:09:38;;;;;;;4.57;2.20;;;1.50;99.90;;;;;;4948132;29;20231;-94
2020/12/22 15:12:10;;;;;;;7.07;2.30;;;1.50;99.90;;;;;;4948172;28;20243;-93
2020/12/22 15:14:44;;;;;;;8.53;2.30;;;1.50;99.90;;;;;;4948783;29;20215;-93
2020/12/22 15:20:00;;;;;;;5.17;2.00;;;1.40;99.90;;;;;;4948415;29;20283;-92
2020/12/22 15:22:33;;;;;;;5.73;2.23;;;1.30;99.90;;;;;;4948425;29;20235;-92
2020/12/22 15:25:05;;;;;;;3.87;1.83;;;1.30;99.90;;;;;;4947880;28;20260;-91
2020/12/22 15:30:41;;;;;;;5.50;1.87;;;1.20;99.90;;;;;;5558504;23;20255;-94
2020/12/22 15:33:12;;;;;;;6.30;2.17;;;1.20;99.90;;;;;;4946604;29;20268;-94
2020/12/22 15:35:43;;;;;;;5.77;2.50;;;1.10;99.90;;;;;;4946316;29;20213;-93
2020/12/22 15:38:14;;;;;;;5.17;2.57;;;1.10;99.90;;;;;;4944976;29;20236;-91
2020/12/22 15:40:47;;;;;;;7.47;3.07;;;1.00;99.90;;;;;;4931232;29;20196;-96
2020/12/22 15:43:25;;;;;;;6.77;3.13;;;1.00;99.90;;;;;;4951446;29;20293;-93
2020/12/22 15:45:57;;;;;;;9.53;3.20;;;1.10;99.90;;;;;;4951151;29;20294;-95
2020/12/22 15:48:31;;;;;;;9.27;3.20;;;1.10;99.90;;;;;;4952177;29;20237;-95
2020/12/22 15:51:01;;;;;;;4.13;2.80;;;1.00;99.90;;;;;;4953804;29;20190;-96
2020/12/22 15:53:37;;;;;;;47.57;7.63;;;1.00;99.90;;;;;;4951413;29;20209;-96
2020/12/22 15:56:08;;;;;;;6.90;2.87;;;0.90;99.90;;;;;;4942159;29;20209;-96
2020/12/22 16:23:01;;;;;;;11.30;3.10;;;1.20;99.90;;;;;;4922618;29;20635;-96
2020/12/22 16:25:32;;;;;;;9.03;3.30;;;1.10;99.90;;;;;;4929269;29;20232;-96
2020/12/22 16:28:04;;;;;;;12.87;3.20;;;1.10;99.90;;;;;;4924498;29;20236;-96
2020/12/22 16:30:36;;;;;;;7.97;2.80;;;1.10;99.90;;;;;;4925651;29;20209;-96
2020/12/22 16:33:08;;;;;;;13.77;2.90;;;1.00;99.90;;;;;;4928861;29;20287;-96
2020/12/22 18:04:47;;;;;;;5.97;3.30;;;2.30;99.90;;;;;;5155655;23;20614;-96
2020/12/22 18:09:53;;;;;;;7.80;3.73;;;2.50;99.90;;;;;;4985014;23;20243;-96
2020/12/22 18:12:24;;;;;;;7.03;3.77;;;2.50;99.90;;;;;;5362539;23;20198;-96
2020/12/22 18:14:58;;;;;;;9.07;2.90;;;2.60;99.90;;;;;;4970319;28;20217;-96
2020/12/22 18:17:30;;;;;;;10.50;3.27;;;2.70;99.90;;;;;;4965659;28;20247;-96
2020/12/22 18:20:05;;;;;;;6.47;2.97;;;2.80;99.90;;;;;;4959626;28;20226;-96
2020/12/22 18:49:31;;;;;;;6.30;2.63;;;3.40;99.90;;;;;;5425117;23;20255;-96
2020/12/22 18:52:02;;;;;;;8.70;2.57;;;3.40;99.90;;;;;;5152032;23;20260;-96
2020/12/22 18:54:35;;;;;;;10.17;2.80;;;3.50;99.90;;;;;;4944911;29;20216;-96
2020/12/22 18:57:06;;;;;;;6.80;2.53;;;3.50;99.90;;;;;;4944713;29;20274;-96
2020/12/22 18:59:38;;;;;;;6.63;2.37;;;3.60;99.90;;;;;;4942461;28;20247;-96
2020/12/22 19:02:10;;;;;;;7.73;2.30;;;3.70;99.90;;;;;;4942323;29;20215;-96
2020/12/22 19:04:43;;;;;;;9.43;2.50;;;3.80;99.90;;;;;;4945250;29;20200;-96
2020/12/22 19:07:14;;;;;;;7.93;2.63;;;3.90;99.90;;;;;;4945159;29;20244;-96
2020/12/22 19:09:45;;;;;;;8.17;2.87;;;3.90;99.90;;;;;;4946567;29;20212;-96
2020/12/22 19:12:16;;;;;;;7.27;2.17;;;4.00;99.90;;;;;;4930557;29;20251;-96
2020/12/22 19:14:51;;;;;;;9.30;2.70;;;4.10;99.90;;;;;;4947406;29;20244;-96
2020/12/22 19:52:20;;;;;;;10.80;2.63;;;5.40;99.90;;;;;;5380620;23;20248;-96
2020/12/22 19:54:54;;;;;;;8.77;2.43;;;5.50;99.90;;;;;;4957470;29;20251;-96